createdAt,value
2019-04-07T00:02:02.784Z,8.92
2019-04-07T00:04:33.018Z,8.98
2019-04-07T00:07:03.842Z,9.06
2019-04-07T00:09:33.563Z,8.95
2019-04-07T00:12:02.892Z,8.90
2019-04-07T00:14:32.926Z,9.06
2019-04-07T00:17:02.588Z,8.97
2019-04-07T00:19:32.335Z,8.97
2019-04-07T00:22:01.643Z,8.93
2019-04-07T00:24:31.234Z,8.86
2019-04-07T00:27:01.402Z,8.76
2019-04-07T00:29:30.833Z,8.66
2019-04-07T00:32:00.326Z,8.74
2019-04-07T00:34:29.868Z,8.84
2019-04-07T00:36:59.946Z,8.78
2019-04-07T00:39:29.635Z,8.66
2019-04-07T00:41:59.206Z,8.69
2019-04-07T00:44:29.163Z,8.69
2019-04-07T00:46:58.914Z,8.73
2019-04-07T00:49:29.048Z,8.62
2019-04-07T00:52:00.654Z,8.65
2019-04-07T00:54:30.565Z,8.65
2019-04-07T00:57:00.145Z,8.67
2019-04-07T00:59:29.721Z,8.60
2019-04-07T01:01:59.227Z,8.57
2019-04-07T01:04:29.184Z,8.49
2019-04-07T01:06:59.154Z,8.46
2019-04-07T01:09:28.877Z,8.35
2019-04-07T01:11:58.625Z,8.11
2019-04-07T01:14:28.170Z,8.26
2019-04-07T01:16:58.306Z,8.31
2019-04-07T01:19:28.153Z,8.42
2019-04-07T01:21:57.551Z,8.35
2019-04-07T01:24:27.709Z,8.36
2019-04-07T01:26:57.402Z,8.31
2019-04-07T01:29:26.793Z,8.31
2019-04-07T01:31:56.250Z,8.36
2019-04-07T01:34:26.176Z,8.21
2019-04-07T01:36:56.788Z,8.13
2019-04-07T01:39:26.435Z,8.07
2019-04-07T01:42:00.074Z,8.00
2019-04-07T01:44:47.436Z,8.12
2019-04-07T01:47:21.693Z,7.90
2019-04-07T01:49:52.797Z,8.03
2019-04-07T01:52:24.046Z,8.02
2019-04-07T01:54:55.012Z,7.96
2019-04-07T01:57:35.485Z,8.00
2019-04-07T02:00:09.543Z,8.05
2019-04-07T02:02:41.331Z,8.05
2019-04-07T02:05:18.744Z,7.80
2019-04-07T02:07:50.068Z,7.80
2019-04-07T02:10:21.445Z,7.88
2019-04-07T02:12:53.172Z,7.79
2019-04-07T02:15:36.290Z,7.66
2019-04-07T02:18:10.302Z,7.81
2019-04-07T02:20:59.673Z,7.85
2019-04-07T02:23:43.665Z,8.01
2019-04-07T02:26:14.741Z,7.93
2019-04-07T02:28:49.559Z,7.78
2019-04-07T02:31:38.202Z,7.74
2019-04-07T02:34:09.540Z,7.77
2019-04-07T02:36:56.062Z,7.77
2019-04-07T02:39:34.699Z,7.46
2019-04-07T02:42:05.937Z,7.46
2019-04-07T02:44:48.282Z,7.46
2019-04-07T02:47:20.200Z,7.84
2019-04-07T02:49:54.790Z,7.84
2019-04-07T02:52:30.305Z,7.67
2019-04-07T02:55:14.329Z,7.67
2019-04-07T02:57:54.224Z,7.58
2019-04-07T03:00:37.997Z,7.49
2019-04-07T03:03:27.099Z,7.51
2019-04-07T03:06:01.955Z,7.34
2019-04-07T03:08:50.627Z,7.34
2019-04-07T03:11:22.506Z,7.35
2019-04-07T03:13:54.386Z,7.51
2019-04-07T03:16:25.522Z,7.54
2019-04-07T03:19:11.757Z,7.54
2019-04-07T03:21:48.557Z,7.53
2019-04-07T03:24:19.587Z,7.53
2019-04-07T03:27:08.037Z,7.54
2019-04-07T03:29:56.684Z,7.54
2019-04-07T03:32:33.727Z,7.58
2019-04-07T03:35:07.386Z,7.62
2019-04-07T03:37:47.230Z,7.64
2019-04-07T03:40:33.473Z,7.64
2019-04-07T03:43:07.509Z,7.57
2019-04-07T03:45:53.921Z,7.32
2019-04-07T03:48:35.347Z,7.31
2019-04-07T03:51:22.968Z,7.34
2019-04-07T03:54:00.809Z,7.34
2019-04-07T03:56:48.892Z,7.28
2019-04-07T03:59:21.486Z,7.28
2019-04-07T04:01:55.583Z,7.33
2019-04-07T04:04:27.474Z,7.33
2019-04-07T04:07:17.803Z,7.32
2019-04-07T04:09:47.558Z,7.29
2019-04-07T04:12:27.885Z,7.29
2019-04-07T04:15:00.103Z,7.28
2019-04-07T04:17:30.677Z,7.17
2019-04-07T04:20:00.460Z,7.20
2019-04-07T04:22:30.800Z,7.20
2019-04-07T04:25:00.948Z,7.21
2019-04-07T04:27:31.277Z,7.21
2019-04-07T04:30:01.112Z,7.25
2019-04-07T04:32:30.938Z,7.11
2019-04-07T04:35:01.024Z,7.11
2019-04-07T04:37:41.225Z,7.13
2019-04-07T04:40:02.147Z,7.19
2019-04-07T04:42:31.470Z,7.14
2019-04-07T04:45:02.225Z,7.14
2019-04-07T04:47:31.819Z,7.12
2019-04-07T04:50:02.234Z,7.22
2019-04-07T04:52:31.900Z,7.24
2019-04-07T04:55:02.031Z,7.33
2019-04-07T04:57:32.092Z,7.42
2019-04-07T05:00:02.180Z,7.41
2019-04-07T05:02:32.587Z,7.33
2019-04-07T05:05:02.639Z,7.12
2019-04-07T05:07:32.421Z,7.12
2019-04-07T05:10:01.908Z,7.42
2019-04-07T05:12:31.513Z,7.56
2019-04-07T05:15:01.613Z,7.53
2019-04-07T05:17:32.364Z,7.53
2019-04-07T05:20:02.566Z,7.66
2019-04-07T05:22:32.131Z,7.65
2019-04-07T05:25:02.257Z,7.57
2019-04-07T05:27:32.727Z,7.57
2019-04-07T05:30:02.478Z,7.37
2019-04-07T05:32:32.175Z,7.37
2019-04-07T05:35:02.363Z,7.47
2019-04-07T05:37:32.045Z,7.72
2019-04-07T05:40:03.520Z,7.76
2019-04-07T05:42:32.849Z,7.76
2019-04-07T05:45:02.618Z,7.88
2019-04-07T05:47:31.910Z,8.00
2019-04-07T05:50:03.284Z,8.15
2019-04-07T05:52:37.849Z,8.35
2019-04-07T05:55:04.896Z,8.29
2019-04-07T05:57:35.888Z,8.66
2019-04-07T06:00:11.137Z,8.68
2019-04-07T06:02:40.675Z,8.83
2019-04-07T06:05:11.053Z,8.79
2019-04-07T06:07:41.489Z,9.07
2019-04-07T06:10:12.021Z,9.32
2019-04-07T06:12:44.930Z,9.65
2019-04-07T06:15:17.657Z,9.37
2019-04-07T06:17:44.592Z,10.06
2019-04-07T06:20:15.920Z,10.25
2019-04-07T06:22:46.837Z,10.57
2019-04-07T06:25:16.619Z,10.63
2019-04-07T06:27:46.726Z,10.51
2019-04-07T06:30:17.881Z,10.72
2019-04-07T06:32:47.928Z,10.92
2019-04-07T06:35:17.226Z,10.84
2019-04-07T06:37:46.559Z,11.25
2019-04-07T06:40:20.410Z,11.38
2019-04-07T06:42:47.663Z,11.85
2019-04-07T06:45:21.831Z,12.25
2019-04-07T06:47:55.199Z,12.32
2019-04-07T06:50:45.511Z,12.91
2019-04-07T06:53:15.750Z,12.71
2019-04-07T06:55:53.995Z,13.07
2019-04-07T06:58:27.842Z,13.27
2019-04-07T07:01:16.975Z,13.71
2019-04-07T07:04:08.592Z,13.60
2019-04-07T07:06:37.349Z,13.56
2019-04-07T07:09:16.587Z,13.65
2019-04-07T07:11:48.521Z,13.99
2019-04-07T07:14:32.903Z,13.98
2019-04-07T07:17:09.073Z,14.05
2019-04-07T07:19:46.356Z,13.72
2019-04-07T07:22:17.783Z,13.71
2019-04-07T07:24:48.145Z,13.74
2019-04-07T07:27:17.635Z,13.76
2019-04-07T07:29:47.705Z,14.22
2019-04-07T07:32:18.530Z,14.33
2019-04-07T07:34:47.956Z,14.82
2019-04-07T07:37:17.360Z,15.15
2019-04-07T07:39:47.107Z,15.08
2019-04-07T07:42:19.081Z,15.05
2019-04-07T07:44:48.399Z,15.28
2019-04-07T07:47:20.880Z,16.13
2019-04-07T07:49:49.830Z,15.75
2019-04-07T07:52:21.583Z,16.26
2019-04-07T07:54:50.837Z,17.01
2019-04-07T07:57:23.448Z,16.82
2019-04-07T07:59:52.065Z,18.64
2019-04-07T08:02:21.986Z,19.81
2019-04-07T08:04:52.756Z,16.43
2019-04-07T08:07:22.650Z,17.69
2019-04-07T08:09:54.370Z,18.90
2019-04-07T08:12:23.801Z,20.07
2019-04-07T08:14:56.165Z,20.17
2019-04-07T08:17:24.828Z,20.12
2019-04-07T08:19:54.406Z,20.18
2019-04-07T08:22:30.374Z,19.69
2019-04-07T08:24:55.567Z,18.48
2019-04-07T08:27:29.223Z,20.23
2019-04-07T08:29:57.194Z,19.98
2019-04-07T08:32:30.843Z,20.26
2019-04-07T08:35:02.662Z,20.32
2019-04-07T08:37:29.630Z,21.01
2019-04-07T08:39:59.480Z,19.88
2019-04-07T08:42:28.897Z,20.17
2019-04-07T08:45:00.346Z,20.17
2019-04-07T08:47:30.176Z,20.18
2019-04-07T08:49:59.779Z,20.21
2019-04-07T08:52:29.354Z,20.19
2019-04-07T08:54:58.934Z,20.05
2019-04-07T08:57:30.566Z,20.46
2019-04-07T09:00:00.113Z,21.79
2019-04-07T09:02:31.116Z,22.28
2019-04-07T09:05:01.299Z,22.41
2019-04-07T09:07:33.066Z,22.65
2019-04-07T09:10:01.934Z,21.98
2019-04-07T09:12:32.220Z,21.15
2019-04-07T09:15:04.338Z,21.20
2019-04-07T09:17:40.458Z,20.48
2019-04-07T09:20:10.435Z,20.59
2019-04-07T09:22:40.941Z,20.59
2019-04-07T09:25:18.327Z,20.87
2019-04-07T09:27:52.353Z,21.46
2019-04-07T09:30:23.931Z,21.24
2019-04-07T09:33:11.396Z,21.70
2019-04-07T09:35:59.240Z,21.91
2019-04-07T09:38:42.164Z,22.44
2019-04-07T09:41:29.739Z,23.22
2019-04-07T09:44:17.324Z,23.79
2019-04-07T09:46:57.612Z,23.32
2019-04-07T09:49:48.194Z,23.84
2019-04-07T09:52:26.557Z,22.27
2019-04-07T09:54:57.534Z,23.62
2019-04-07T09:57:31.518Z,24.08
2019-04-07T10:00:22.842Z,24.31
2019-04-07T10:02:56.112Z,22.76
2019-04-07T10:05:36.302Z,23.58
2019-04-07T10:08:12.504Z,23.17
2019-04-07T10:10:52.598Z,21.47
2019-04-07T10:13:24.128Z,22.07
2019-04-07T10:16:02.332Z,22.98
2019-04-07T10:18:52.164Z,23.50
2019-04-07T10:21:41.766Z,24.62
2019-04-07T10:24:15.418Z,24.40
2019-04-07T10:27:02.455Z,24.30
2019-04-07T10:29:34.086Z,26.00
2019-04-07T10:32:23.828Z,25.48
2019-04-07T10:34:57.534Z,24.12
2019-04-07T10:37:28.773Z,25.41
2019-04-07T10:40:19.725Z,23.93
2019-04-07T10:43:04.191Z,22.29
2019-04-07T10:45:35.411Z,24.58
2019-04-07T10:48:06.986Z,24.79
2019-04-07T10:50:43.866Z,25.74
2019-04-07T10:53:31.287Z,25.59
2019-04-07T10:56:08.969Z,25.35
2019-04-07T10:58:56.628Z,26.19
2019-04-07T11:01:28.515Z,24.70
2019-04-07T11:04:08.206Z,24.50
2019-04-07T11:06:39.493Z,24.43
2019-04-07T11:09:28.326Z,23.93
2019-04-07T11:12:05.059Z,23.91
2019-04-07T11:14:51.242Z,23.83
2019-04-07T11:17:38.308Z,24.57
2019-04-07T11:20:28.020Z,25.20
2019-04-07T11:23:11.915Z,25.17
2019-04-07T11:25:47.839Z,24.47
2019-04-07T11:28:28.709Z,25.22
2019-04-07T11:31:13.554Z,24.35
2019-04-07T11:34:02.270Z,24.95
2019-04-07T11:36:51.723Z,24.00
2019-04-07T11:39:27.408Z,22.65
2019-04-07T11:42:00.986Z,24.85
2019-04-07T11:44:34.007Z,25.73
2019-04-07T11:47:18.585Z,25.51
2019-04-07T11:50:06.774Z,24.33
2019-04-07T11:52:41.835Z,25.24
2019-04-07T11:55:17.370Z,24.63
2019-04-07T11:58:06.573Z,26.43
2019-04-07T12:00:28.170Z,27.64
2019-04-07T12:03:03.957Z,26.14
2019-04-07T12:05:37.845Z,26.93
2019-04-07T12:08:12.025Z,25.03
2019-04-07T12:11:02.823Z,24.49
2019-04-07T12:13:44.137Z,24.68
2019-04-07T12:16:14.547Z,25.28
2019-04-07T12:18:50.121Z,26.14
2019-04-07T12:21:27.861Z,27.36
2019-04-07T12:24:09.574Z,26.91
2019-04-07T12:26:43.786Z,24.58
2019-04-07T12:29:31.035Z,24.70
2019-04-07T12:32:08.564Z,23.07
2019-04-07T12:34:47.948Z,23.94
2019-04-07T12:37:38.041Z,23.81
2019-04-07T12:40:09.345Z,23.06
2019-04-07T12:42:47.023Z,22.56
2019-04-07T12:45:21.051Z,22.65
2019-04-07T12:47:52.805Z,22.48
2019-04-07T12:50:30.483Z,22.13
2019-04-07T12:53:13.580Z,22.19
2019-04-07T12:55:56.940Z,22.26
2019-04-07T12:58:36.811Z,22.11
2019-04-07T13:01:18.720Z,22.00
2019-04-07T13:03:55.779Z,21.58
2019-04-07T13:06:33.363Z,21.85
2019-04-07T13:09:08.188Z,21.70
2019-04-07T13:11:45.814Z,21.38
2019-04-07T13:14:35.279Z,21.65
2019-04-07T13:17:18.241Z,21.36
2019-04-07T13:19:58.821Z,20.84
2019-04-07T13:22:46.229Z,20.92
2019-04-07T13:25:24.343Z,21.40
2019-04-07T13:28:08.278Z,21.76
2019-04-07T13:30:54.913Z,21.94
2019-04-07T13:33:38.111Z,22.10
2019-04-07T13:36:10.367Z,22.19
2019-04-07T13:38:44.650Z,21.21
2019-04-07T13:41:41.591Z,21.79
2019-04-07T13:44:07.662Z,22.24
2019-04-07T13:46:54.275Z,22.33
2019-04-07T13:49:28.931Z,21.90
2019-04-07T13:52:00.488Z,21.63
2019-04-07T13:54:38.326Z,21.13
2019-04-07T13:57:10.165Z,21.72
2019-04-07T13:59:50.369Z,22.01
2019-04-07T14:02:24.780Z,21.24
2019-04-07T14:05:05.157Z,21.39
2019-04-07T14:07:45.039Z,21.32
2019-04-07T14:10:28.650Z,21.57
2019-04-07T14:13:17.613Z,21.60
2019-04-07T14:16:07.381Z,21.64
2019-04-07T14:18:55.860Z,21.72
2019-04-07T14:21:27.511Z,21.31
2019-04-07T14:24:14.775Z,20.80
2019-04-07T14:26:46.731Z,20.86
2019-04-07T14:29:24.238Z,20.56
2019-04-07T14:31:55.578Z,20.89
2019-04-07T14:34:29.397Z,21.58
2019-04-07T14:37:09.761Z,21.87
2019-04-07T14:39:47.682Z,20.83
2019-04-07T14:42:21.251Z,21.40
2019-04-07T14:44:55.575Z,21.39
2019-04-07T14:47:41.526Z,21.61
2019-04-07T14:50:13.519Z,21.51
2019-04-07T14:52:50.158Z,21.67
2019-04-07T14:55:31.577Z,21.59
2019-04-07T14:58:20.134Z,21.81
2019-04-07T15:01:08.407Z,21.41
2019-04-07T15:03:38.087Z,21.38
2019-04-07T15:06:07.628Z,21.44
2019-04-07T15:08:47.621Z,21.40
2019-04-07T15:11:24.952Z,21.34
2019-04-07T15:13:57.224Z,21.41
2019-04-07T15:16:26.356Z,21.41
2019-04-07T15:18:56.604Z,21.56
2019-04-07T15:21:26.179Z,21.36
2019-04-07T15:23:56.178Z,21.32
2019-04-07T15:26:25.768Z,21.19
2019-04-07T15:28:57.167Z,21.33
2019-04-07T15:31:26.435Z,21.38
2019-04-07T15:33:56.350Z,21.64
2019-04-07T15:36:26.432Z,21.47
2019-04-07T15:38:57.294Z,21.13
2019-04-07T15:41:27.568Z,21.01
2019-04-07T15:43:57.317Z,20.48
2019-04-07T15:46:26.896Z,20.84
2019-04-07T15:48:57.011Z,21.01
2019-04-07T15:51:26.728Z,21.24
2019-04-07T15:53:56.566Z,21.15
2019-04-07T15:56:27.091Z,20.91
2019-04-07T15:59:00.079Z,20.92
2019-04-07T16:01:28.029Z,20.75
2019-04-07T16:03:57.687Z,20.62
2019-04-07T16:06:27.932Z,20.66
2019-04-07T16:08:59.963Z,20.56
2019-04-07T16:11:30.466Z,20.51
2019-04-07T16:13:59.712Z,20.49
2019-04-07T16:16:29.703Z,20.60
2019-04-07T16:18:59.368Z,20.58
2019-04-07T16:21:29.795Z,20.62
2019-04-07T16:23:59.512Z,20.65
2019-04-07T16:26:31.210Z,20.69
2019-04-07T16:28:59.918Z,20.69
2019-04-07T16:31:30.051Z,20.32
2019-04-07T16:34:00.290Z,20.39
2019-04-07T16:36:30.242Z,20.05
2019-04-07T16:39:01.946Z,19.94
2019-04-07T16:41:31.583Z,20.06
2019-04-07T16:44:03.521Z,20.31
2019-04-07T16:46:32.173Z,20.35
2019-04-07T16:49:01.802Z,20.39
2019-04-07T16:51:33.635Z,20.36
2019-04-07T16:54:02.741Z,20.39
2019-04-07T16:56:32.654Z,20.55
2019-04-07T16:59:02.638Z,20.43
2019-04-07T17:01:32.482Z,20.46
2019-04-07T17:04:02.859Z,20.52
2019-04-07T17:06:36.113Z,20.36
2019-04-07T17:09:08.901Z,20.27
2019-04-07T17:11:40.572Z,20.31
2019-04-07T17:14:09.270Z,20.26
2019-04-07T17:16:42.194Z,20.11
2019-04-07T17:19:09.933Z,20.02
2019-04-07T17:21:41.142Z,19.80
2019-04-07T17:24:11.074Z,19.74
2019-04-07T17:26:41.469Z,19.71
2019-04-07T17:29:11.180Z,19.59
2019-04-07T17:31:41.165Z,19.69
2019-04-07T17:34:13.059Z,19.70
2019-04-07T17:36:41.787Z,19.64
2019-04-07T17:39:15.615Z,19.59
2019-04-07T17:41:49.177Z,19.58
2019-04-07T17:44:24.661Z,19.34
2019-04-07T17:47:13.588Z,19.30
2019-04-07T17:50:01.034Z,19.23
2019-04-07T17:52:44.218Z,19.22
2019-04-07T17:55:18.744Z,19.10
2019-04-07T17:57:49.685Z,19.02
2019-04-07T18:00:37.405Z,19.02
2019-04-07T18:03:11.879Z,19.02
2019-04-07T18:06:00.439Z,19.00
2019-04-07T18:08:48.593Z,18.93
2019-04-07T18:11:20.161Z,18.80
2019-04-07T18:13:53.809Z,18.76
2019-04-07T18:16:40.763Z,18.69
2019-04-07T18:19:27.122Z,18.65
2019-04-07T18:22:06.179Z,18.45
2019-04-07T18:24:50.946Z,18.38
2019-04-07T18:27:25.348Z,18.42
2019-04-07T18:29:59.544Z,18.34
2019-04-07T18:32:43.017Z,18.33
2019-04-07T18:35:16.576Z,18.22
2019-04-07T18:38:04.396Z,18.21
2019-04-07T18:40:52.552Z,17.89
2019-04-07T18:43:26.705Z,17.42
2019-04-07T18:46:05.124Z,17.31
2019-04-07T18:48:53.245Z,17.15
2019-04-07T18:51:41.347Z,17.00
2019-04-07T18:54:12.297Z,16.91
2019-04-07T18:57:01.565Z,16.78
2019-04-07T18:59:33.222Z,16.86
2019-04-07T19:02:11.887Z,16.61
2019-04-07T19:04:39.508Z,16.43
2019-04-07T19:07:10.919Z,16.28
2019-04-07T19:09:42.403Z,16.20
2019-04-07T19:12:30.387Z,16.09
2019-04-07T19:15:08.795Z,16.18
2019-04-07T19:17:46.083Z,15.98
2019-04-07T19:20:34.127Z,15.96
2019-04-07T19:23:07.781Z,15.90
2019-04-07T19:25:51.184Z,15.90
2019-04-07T19:28:38.330Z,15.83
2019-04-07T19:31:27.079Z,15.83
2019-04-07T19:33:59.850Z,15.68
2019-04-07T19:36:42.799Z,15.70
2019-04-07T19:39:23.511Z,15.44
2019-04-07T19:41:51.574Z,15.42
2019-04-07T19:44:37.191Z,15.39
2019-04-07T19:47:19.304Z,15.41
2019-04-07T19:49:56.223Z,15.21
2019-04-07T19:52:39.799Z,15.14
2019-04-07T19:55:10.818Z,15.18
2019-04-07T19:57:42.731Z,15.03
2019-04-07T20:00:28.000Z,15.03
2019-04-07T20:02:59.544Z,14.97
2019-04-07T20:05:49.625Z,14.70
2019-04-07T20:08:22.913Z,14.65
2019-04-07T20:10:54.912Z,14.57
2019-04-07T20:13:42.461Z,14.37
2019-04-07T20:16:30.560Z,14.31
2019-04-07T20:19:04.739Z,14.33
2019-04-07T20:21:40.121Z,14.37
2019-04-07T20:24:08.863Z,14.47
2019-04-07T20:26:42.844Z,14.30
2019-04-07T20:29:13.759Z,14.44
2019-04-07T20:31:45.038Z,14.42
2019-04-07T20:34:16.654Z,14.30
2019-04-07T20:36:51.661Z,14.22
2019-04-07T20:39:32.593Z,13.99
2019-04-07T20:42:01.989Z,13.81
2019-04-07T20:44:34.427Z,13.65
2019-04-07T20:47:15.484Z,13.57
2019-04-07T20:49:55.441Z,13.69
2019-04-07T20:52:29.865Z,13.68
2019-04-07T20:55:03.782Z,13.57
2019-04-07T20:57:36.435Z,13.53
2019-04-07T21:00:15.007Z,13.51
2019-04-07T21:03:13.919Z,13.40
2019-04-07T21:05:42.892Z,13.21
2019-04-07T21:08:31.930Z,13.13
2019-04-07T21:11:04.615Z,13.19
2019-04-07T21:13:52.475Z,13.14
2019-04-07T21:16:32.635Z,13.36
2019-04-07T21:19:06.787Z,13.18
2019-04-07T21:21:41.671Z,13.17
2019-04-07T21:24:27.879Z,13.10
2019-04-07T21:27:07.995Z,13.12
2019-04-07T21:29:43.447Z,13.18
2019-04-07T21:32:24.869Z,13.30
2019-04-07T21:35:12.967Z,13.16
2019-04-07T21:38:02.548Z,13.09
2019-04-07T21:40:45.885Z,13.07
2019-04-07T21:43:27.843Z,12.96
2019-04-07T21:46:15.400Z,12.88
2019-04-07T21:49:00.703Z,12.85
2019-04-07T21:51:48.211Z,12.94
2019-04-07T21:54:38.678Z,12.85
2019-04-07T21:57:08.303Z,12.84
2019-04-07T21:59:42.216Z,13.00
2019-04-07T22:02:29.639Z,13.00
2019-04-07T22:05:07.337Z,12.71
2019-04-07T22:07:44.970Z,12.59
2019-04-07T22:10:18.737Z,12.52
2019-04-07T22:12:47.765Z,12.57
2019-04-07T22:15:17.681Z,12.33
2019-04-07T22:17:47.853Z,12.55
2019-04-07T22:20:18.957Z,12.53
2019-04-07T22:22:49.337Z,12.62
2019-04-07T22:25:22.709Z,12.59
2019-04-07T22:27:54.495Z,12.66
2019-04-07T22:30:24.246Z,12.44
2019-04-07T22:32:54.172Z,12.38
2019-04-07T22:35:24.600Z,12.40
2019-04-07T22:37:54.744Z,12.24
2019-04-07T22:40:24.461Z,12.13
2019-04-07T22:42:54.148Z,12.08
2019-04-07T22:45:27.918Z,12.26
2019-04-07T22:47:55.163Z,12.34
2019-04-07T22:50:25.302Z,12.33
2019-04-07T22:52:55.377Z,12.08
2019-04-07T22:55:25.639Z,12.19
2019-04-07T22:57:55.778Z,12.03
2019-04-07T23:00:26.906Z,12.08
2019-04-07T23:02:56.619Z,12.31
2019-04-07T23:05:26.275Z,12.19
2019-04-07T23:07:56.416Z,12.18
2019-04-07T23:10:25.987Z,12.03
2019-04-07T23:12:55.357Z,11.95
2019-04-07T23:15:37.265Z,11.93
2019-04-07T23:17:55.923Z,11.95
2019-04-07T23:20:25.272Z,11.99
2019-04-07T23:22:54.533Z,12.00
2019-04-07T23:25:23.864Z,11.91
2019-04-07T23:27:54.235Z,11.90
2019-04-07T23:30:26.175Z,11.93
2019-04-07T23:32:55.719Z,11.66
2019-04-07T23:35:25.679Z,11.81
2019-04-07T23:37:55.571Z,11.74
2019-04-07T23:40:25.844Z,11.81
2019-04-07T23:42:55.654Z,11.63
2019-04-07T23:45:25.304Z,11.56
2019-04-07T23:47:55.493Z,11.44
2019-04-07T23:50:25.285Z,11.48
2019-04-07T23:52:56.009Z,11.45
2019-04-07T23:55:25.749Z,11.39
2019-04-07T23:57:55.087Z,11.52
